createdAt,value
2023-03-26T00:01:23.828Z,1.70
2023-03-26T00:03:55.308Z,1.50
2023-03-26T00:06:27.482Z,1.60
2023-03-26T00:08:56.116Z,1.40
2023-03-26T00:11:24.649Z,1.42
2023-03-26T00:13:53.778Z,1.58
2023-03-26T00:16:21.137Z,1.75
2023-03-26T00:18:49.016Z,1.58
2023-03-26T00:21:21.021Z,1.60
2023-03-26T00:23:49.169Z,1.40
2023-03-26T00:26:17.473Z,1.42
2023-03-26T00:28:44.717Z,1.33
2023-03-26T00:31:14.332Z,1.73
2023-03-26T00:33:41.909Z,1.55
2023-03-26T00:36:14.517Z,1.30
2023-03-26T00:38:42.985Z,1.55
2023-03-26T00:41:17.583Z,1.40
2023-03-26T00:43:48.976Z,1.75
2023-03-26T00:46:17.977Z,1.70
2023-03-26T00:48:46.129Z,1.33
2023-03-26T00:51:15.678Z,1.77
2023-03-26T00:53:44.783Z,1.95
2023-03-26T00:56:12.354Z,2.00
2023-03-26T00:58:39.710Z,1.75
2023-03-26T01:01:09.997Z,1.60
2023-03-26T01:03:38.637Z,1.50
2023-03-26T01:06:12.828Z,1.80
2023-03-26T01:08:45.253Z,1.65
2023-03-26T01:11:14.297Z,1.63
2023-03-26T01:13:49.638Z,1.65
2023-03-26T01:16:31.361Z,1.70
2023-03-26T01:18:58.876Z,1.40
2023-03-26T01:21:31.779Z,1.63
2023-03-26T01:24:05.256Z,2.20
2023-03-26T01:26:48.936Z,1.80
2023-03-26T01:29:29.937Z,1.45
2023-03-26T01:32:02.388Z,1.63
2023-03-26T01:34:59.133Z,1.60
2023-03-26T01:37:38.146Z,1.48
2023-03-26T01:40:19.658Z,1.92
2023-03-26T01:43:22.328Z,2.00
2023-03-26T01:45:51.207Z,1.55
2023-03-26T01:48:18.602Z,1.60
2023-03-26T01:50:46.020Z,2.08
2023-03-26T01:53:14.476Z,2.25
2023-03-26T01:56:06.053Z,1.30
2023-03-26T01:59:03.956Z,1.52
2023-03-26T02:01:44.741Z,1.50
2023-03-26T02:04:12.057Z,1.60
2023-03-26T02:06:42.633Z,2.00
2023-03-26T02:09:14.808Z,1.95
2023-03-26T02:11:43.285Z,1.65
2023-03-26T02:14:10.951Z,2.05
2023-03-26T02:16:38.232Z,1.90
2023-03-26T02:19:05.495Z,1.95
2023-03-26T02:21:34.088Z,1.83
2023-03-26T02:24:04.460Z,1.80
2023-03-26T02:26:37.788Z,2.22
2023-03-26T02:29:12.376Z,1.50
2023-03-26T02:31:41.797Z,2.30
2023-03-26T02:34:08.731Z,1.83
2023-03-26T02:36:38.802Z,1.67
2023-03-26T02:39:06.525Z,1.60
2023-03-26T02:41:40.398Z,1.77
2023-03-26T02:44:10.312Z,2.00
2023-03-26T02:47:00.677Z,2.00
2023-03-26T02:49:39.353Z,1.60
2023-03-26T02:52:06.873Z,1.77
2023-03-26T02:54:35.842Z,1.70
2023-03-26T02:57:16.915Z,2.03
2023-03-26T03:00:16.702Z,1.90
2023-03-26T03:02:48.298Z,1.90
2023-03-26T03:05:31.939Z,1.70
2023-03-26T03:08:18.550Z,2.08
2023-03-26T03:11:09.632Z,1.80
2023-03-26T03:13:44.097Z,1.92
2023-03-26T03:16:12.356Z,1.88
2023-03-26T03:18:39.505Z,2.13
2023-03-26T03:21:07.264Z,1.52
2023-03-26T03:23:34.617Z,2.60
2023-03-26T03:26:27.526Z,1.90
2023-03-26T03:28:56.573Z,1.95
2023-03-26T03:31:25.244Z,1.90
2023-03-26T03:33:54.733Z,1.30
2023-03-26T03:36:23.736Z,1.80
2023-03-26T03:39:02.560Z,2.08
2023-03-26T03:41:30.285Z,2.20
2023-03-26T03:43:59.843Z,1.83
2023-03-26T03:46:29.973Z,2.30
2023-03-26T03:48:57.435Z,1.90
2023-03-26T03:51:29.824Z,1.65
2023-03-26T03:53:59.428Z,1.70
2023-03-26T03:56:58.997Z,1.70
2023-03-26T03:59:37.595Z,1.70
2023-03-26T04:02:08.266Z,2.05
2023-03-26T04:04:50.444Z,2.30
2023-03-26T04:07:21.106Z,2.20
2023-03-26T04:10:16.106Z,1.42
2023-03-26T04:13:02.060Z,2.03
2023-03-26T04:15:55.653Z,1.38
2023-03-26T04:18:23.863Z,1.77
2023-03-26T04:20:50.919Z,2.08
2023-03-26T04:23:26.667Z,1.60
2023-03-26T04:26:04.260Z,1.98
2023-03-26T04:28:55.199Z,1.90
2023-03-26T04:31:30.486Z,1.40
2023-03-26T04:34:23.552Z,1.95
2023-03-26T04:37:06.479Z,1.83
2023-03-26T04:39:40.733Z,1.45
2023-03-26T04:42:46.058Z,1.55
2023-03-26T04:45:22.895Z,1.83
2023-03-26T04:47:59.458Z,1.70
2023-03-26T04:50:27.585Z,2.03
2023-03-26T04:52:57.104Z,1.58
2023-03-26T04:55:49.266Z,1.42
2023-03-26T04:58:32.665Z,2.10
2023-03-26T05:01:09.809Z,1.38
2023-03-26T05:03:42.016Z,2.00
2023-03-26T05:06:14.558Z,1.80
2023-03-26T05:08:41.884Z,1.80
2023-03-26T05:11:13.056Z,1.95
2023-03-26T05:13:42.827Z,2.15
2023-03-26T05:16:12.596Z,1.70
2023-03-26T05:18:43.930Z,1.77
2023-03-26T05:21:11.229Z,2.10
2023-03-26T05:23:39.892Z,1.83
2023-03-26T05:26:27.259Z,1.63
2023-03-26T05:28:54.587Z,1.75
2023-03-26T05:31:32.816Z,1.83
2023-03-26T05:34:01.850Z,1.42
2023-03-26T05:36:29.204Z,1.75
2023-03-26T05:39:09.182Z,1.67
2023-03-26T05:41:59.004Z,1.67
2023-03-26T05:44:35.036Z,1.48
2023-03-26T05:47:06.954Z,1.45
2023-03-26T05:49:34.581Z,1.88
2023-03-26T05:52:01.860Z,1.58
2023-03-26T05:54:47.910Z,1.48
2023-03-26T05:57:35.382Z,2.15
2023-03-26T06:00:21.821Z,1.50
2023-03-26T06:02:51.979Z,1.50
2023-03-26T06:05:43.249Z,1.75
2023-03-26T06:08:19.824Z,1.52
2023-03-26T06:11:05.565Z,1.85
2023-03-26T06:13:36.077Z,1.83
2023-03-26T06:16:03.488Z,1.70
2023-03-26T06:18:34.119Z,1.70
2023-03-26T06:21:19.866Z,1.83
2023-03-26T06:23:51.964Z,1.55
2023-03-26T06:26:54.552Z,1.90
2023-03-26T06:29:45.818Z,1.48
2023-03-26T06:32:26.698Z,1.98
2023-03-26T06:34:59.376Z,1.67
2023-03-26T06:37:26.531Z,1.45
2023-03-26T06:39:58.713Z,1.90
2023-03-26T06:43:07.957Z,1.70
2023-03-26T06:46:07.026Z,2.17
2023-03-26T06:48:40.480Z,1.33
2023-03-26T06:51:23.901Z,1.48
2023-03-26T06:54:06.442Z,1.67
2023-03-26T06:56:52.637Z,1.50
2023-03-26T06:59:46.241Z,2.17
2023-03-26T07:02:32.077Z,1.80
2023-03-26T07:05:17.939Z,1.80
2023-03-26T07:08:04.090Z,1.40
2023-03-26T07:10:49.909Z,1.92
2023-03-26T07:13:47.689Z,1.70
2023-03-26T07:16:33.597Z,1.75
2023-03-26T07:19:39.227Z,1.55
2023-03-26T07:22:06.730Z,1.58
2023-03-26T07:25:00.414Z,1.73
2023-03-26T07:27:47.982Z,1.48
2023-03-26T07:30:53.168Z,1.77
2023-03-26T07:34:13.198Z,1.48
2023-03-26T07:36:57.063Z,1.90
2023-03-26T07:40:26.224Z,1.58
2023-03-26T07:43:33.816Z,1.93
2023-03-26T07:46:28.048Z,1.38
2023-03-26T07:49:20.391Z,1.75
2023-03-26T07:52:03.806Z,1.88
2023-03-26T07:54:57.409Z,1.70
2023-03-26T07:58:08.385Z,1.98
2023-03-26T08:01:04.234Z,1.58
2023-03-26T08:03:59.735Z,1.40
2023-03-26T08:07:45.097Z,1.40
2023-03-26T08:10:30.883Z,1.63
2023-03-26T08:13:34.719Z,1.35
2023-03-26T08:16:19.961Z,1.50
2023-03-26T08:18:56.219Z,2.00
2023-03-26T08:21:35.816Z,1.50
2023-03-26T08:24:13.392Z,1.63
2023-03-26T08:26:52.932Z,2.40
2023-03-26T08:29:22.916Z,1.65
2023-03-26T08:31:50.508Z,1.75
2023-03-26T08:34:17.741Z,1.50
2023-03-26T08:36:45.056Z,1.73
2023-03-26T08:39:13.098Z,1.80
2023-03-26T08:41:40.454Z,1.52
2023-03-26T08:44:10.240Z,2.33
2023-03-26T08:47:04.559Z,2.60
2023-03-26T08:50:04.036Z,3.15
2023-03-26T08:52:58.274Z,2.47
2023-03-26T08:55:41.106Z,2.05
2023-03-26T08:58:36.090Z,2.00
2023-03-26T09:01:37.061Z,1.65
2023-03-26T09:04:25.076Z,1.33
2023-03-26T09:07:11.072Z,1.10
2023-03-26T09:10:06.779Z,1.38
2023-03-26T09:12:56.190Z,1.17
2023-03-26T09:15:47.726Z,1.25
2023-03-26T09:18:41.534Z,1.42
2023-03-26T09:21:26.409Z,1.45
2023-03-26T09:24:12.069Z,1.30
2023-03-26T09:27:07.364Z,1.23
2023-03-26T09:29:46.305Z,1.08
2023-03-26T09:32:13.518Z,1.92
2023-03-26T09:35:13.808Z,1.20
2023-03-26T09:37:57.108Z,1.38
2023-03-26T09:41:09.074Z,1.27
2023-03-26T09:43:54.943Z,1.70
2023-03-26T09:46:59.342Z,1.33
2023-03-26T09:49:44.013Z,1.33
2023-03-26T09:52:27.420Z,1.10
2023-03-26T09:55:00.017Z,1.10
2023-03-26T09:57:53.613Z,1.23
2023-03-26T10:00:47.535Z,1.00
2023-03-26T10:03:26.412Z,1.38
2023-03-26T10:05:57.487Z,1.13
2023-03-26T10:08:36.854Z,1.27
2023-03-26T10:11:27.091Z,1.30
2023-03-26T10:14:05.990Z,1.00
2023-03-26T10:16:33.592Z,0.90
2023-03-26T10:19:38.966Z,0.85
2023-03-26T10:22:31.247Z,1.10
2023-03-26T10:25:13.147Z,1.00
2023-03-26T10:28:01.848Z,1.45
2023-03-26T10:30:38.150Z,0.98
2023-03-26T10:33:33.968Z,1.40
2023-03-26T10:36:21.057Z,1.00
2023-03-26T10:39:37.315Z,1.20
2023-03-26T10:42:20.395Z,1.15
2023-03-26T10:44:58.977Z,1.25
2023-03-26T10:47:41.261Z,1.83
2023-03-26T10:50:47.297Z,1.27
2023-03-26T10:53:32.323Z,0.98
2023-03-26T10:56:27.821Z,1.17
2023-03-26T10:58:59.705Z,1.35
2023-03-26T11:01:29.393Z,1.42
2023-03-26T11:03:59.950Z,1.30
2023-03-26T11:06:52.761Z,1.25
2023-03-26T11:10:04.937Z,1.30
2023-03-26T11:12:46.487Z,1.20
2023-03-26T11:15:40.539Z,1.35
2023-03-26T11:18:43.465Z,1.40
2023-03-26T11:21:35.715Z,1.25
2023-03-26T11:24:38.636Z,1.42
2023-03-26T11:27:15.584Z,1.10
2023-03-26T11:30:02.241Z,1.75
2023-03-26T11:32:41.350Z,1.50
2023-03-26T11:35:40.874Z,1.52
2023-03-26T11:38:17.373Z,1.55
2023-03-26T11:40:50.568Z,1.20
2023-03-26T11:43:33.197Z,1.30
2023-03-26T11:46:03.033Z,1.40
2023-03-26T11:48:40.519Z,1.55
2023-03-26T11:51:22.517Z,1.10
2023-03-26T11:53:50.042Z,1.70
2023-03-26T11:57:06.088Z,1.90
2023-03-26T11:59:41.945Z,1.30
2023-03-26T12:02:24.910Z,1.45
2023-03-26T12:05:02.791Z,2.10
2023-03-26T12:07:36.411Z,1.67
2023-03-26T12:10:19.448Z,1.80
2023-03-26T12:12:47.715Z,1.40
2023-03-26T12:15:16.705Z,1.45
2023-03-26T12:17:44.036Z,1.50
2023-03-26T12:20:26.353Z,1.35
2023-03-26T12:22:59.140Z,0.93
2023-03-26T12:25:31.419Z,0.65
2023-03-26T12:28:18.273Z,0.77
2023-03-26T12:30:58.533Z,0.90
2023-03-26T12:33:29.222Z,0.82
2023-03-26T12:35:58.308Z,0.77
2023-03-26T12:38:35.845Z,1.00
2023-03-26T12:43:40.324Z,0.68
2023-03-26T12:44:50.757Z,0.93
2023-03-26T12:47:56.986Z,1.00
2023-03-26T12:50:16.480Z,0.60
2023-03-26T12:52:47.140Z,0.98
2023-03-26T12:55:28.905Z,0.90
2023-03-26T12:58:16.094Z,0.82
2023-03-26T13:00:50.771Z,1.00
2023-03-26T13:03:52.965Z,1.23
2023-03-26T13:06:59.793Z,1.02
2023-03-26T13:09:52.882Z,0.73
2023-03-26T13:12:44.161Z,0.93
2023-03-26T13:15:52.747Z,0.80
2023-03-26T13:18:37.509Z,0.90
2023-03-26T13:21:20.467Z,0.90
2023-03-26T13:23:47.782Z,1.05
2023-03-26T13:26:41.984Z,0.75
2023-03-26T13:29:36.103Z,0.80
2023-03-26T13:32:26.578Z,0.70
2023-03-26T13:34:56.272Z,0.80
2023-03-26T13:37:39.933Z,0.82
2023-03-26T13:40:45.640Z,1.10
2023-03-26T13:43:21.422Z,0.77
2023-03-26T13:46:21.685Z,1.00
2023-03-26T13:48:57.633Z,0.90
2023-03-26T13:51:43.253Z,0.93
2023-03-26T13:54:32.417Z,0.77
2023-03-26T13:57:08.096Z,0.93
2023-03-26T13:59:52.860Z,0.77
2023-03-26T14:02:38.828Z,0.90
2023-03-26T14:05:17.244Z,1.30
2023-03-26T14:07:57.374Z,1.00
2023-03-26T14:10:28.917Z,0.80
2023-03-26T14:13:13.637Z,0.68
2023-03-26T14:16:03.884Z,0.98
2023-03-26T14:18:31.517Z,1.33
2023-03-26T14:21:22.761Z,1.50
2023-03-26T14:24:02.005Z,1.20
2023-03-26T14:26:56.054Z,1.00
2023-03-26T14:29:23.862Z,0.98
2023-03-26T14:32:24.516Z,1.20
2023-03-26T14:35:20.562Z,1.25
2023-03-26T14:38:22.859Z,0.73
2023-03-26T14:41:05.327Z,0.80
2023-03-26T14:43:35.231Z,0.90
2023-03-26T14:46:26.677Z,1.00
2023-03-26T14:49:30.566Z,0.98
2023-03-26T14:52:36.854Z,0.90
2023-03-26T14:55:13.129Z,0.88
2023-03-26T14:57:54.691Z,1.13
2023-03-26T15:00:31.284Z,1.10
2023-03-26T15:03:10.400Z,0.98
2023-03-26T15:05:53.804Z,1.10
2023-03-26T15:09:03.902Z,0.73
2023-03-26T15:12:12.779Z,1.10
2023-03-26T15:14:40.725Z,1.10
2023-03-26T15:17:35.645Z,1.23
2023-03-26T15:20:59.501Z,1.40
2023-03-26T15:23:47.437Z,1.23
2023-03-26T15:26:37.113Z,1.02
2023-03-26T15:29:12.987Z,1.13
2023-03-26T15:32:04.237Z,1.20
2023-03-26T15:35:09.714Z,7.35
2023-03-26T15:38:14.471Z,2.65
2023-03-26T15:41:00.974Z,1.75
2023-03-26T15:46:59.349Z,1.52
2023-03-26T15:49:55.029Z,0.98
2023-03-26T15:52:51.973Z,1.20
2023-03-26T15:58:12.267Z,4.35
2023-03-26T16:00:56.607Z,7.93
2023-03-26T16:03:43.263Z,4.22
2023-03-26T16:06:30.910Z,2.50
2023-03-26T16:09:08.020Z,1.38
2023-03-26T16:11:53.971Z,1.30
2023-03-26T16:14:36.404Z,1.20
2023-03-26T16:17:06.569Z,1.05
2023-03-26T16:19:49.506Z,0.98
2023-03-26T16:22:42.933Z,0.80
2023-03-26T16:25:30.350Z,0.80
2023-03-26T16:28:26.460Z,0.90
2023-03-26T16:31:37.555Z,0.83
2023-03-26T16:34:08.359Z,0.90
2023-03-26T16:36:35.749Z,0.77
2023-03-26T16:39:05.583Z,0.60
2023-03-26T16:41:34.726Z,1.00
2023-03-26T16:44:19.184Z,0.85
2023-03-26T16:47:14.557Z,0.75
2023-03-26T16:50:07.457Z,0.93
2023-03-26T16:52:36.624Z,0.68
2023-03-26T16:55:18.370Z,0.90
2023-03-26T16:57:48.115Z,0.82
2023-03-26T17:01:00.678Z,0.98
2023-03-26T17:03:58.261Z,0.95
2023-03-26T17:06:46.408Z,0.80
2023-03-26T17:09:30.794Z,0.73
2023-03-26T17:12:28.387Z,1.02
2023-03-26T17:15:29.317Z,0.70
2023-03-26T17:18:09.906Z,0.90
2023-03-26T17:20:42.981Z,1.05
2023-03-26T17:23:21.946Z,0.80
2023-03-26T17:26:09.355Z,0.82
2023-03-26T17:28:43.451Z,1.17
2023-03-26T17:31:11.183Z,0.73
2023-03-26T17:33:39.207Z,1.02
2023-03-26T17:36:12.729Z,1.00
2023-03-26T17:38:40.216Z,1.20
2023-03-26T17:41:16.483Z,0.95
2023-03-26T17:43:52.123Z,0.82
2023-03-26T17:46:42.829Z,0.82
2023-03-26T17:49:12.641Z,0.95
2023-03-26T17:52:00.946Z,0.80
2023-03-26T17:54:28.415Z,1.00
2023-03-26T17:56:59.764Z,1.10
2023-03-26T17:59:28.181Z,1.10
2023-03-26T18:01:59.303Z,1.23
2023-03-26T18:04:45.100Z,1.13
2023-03-26T18:07:44.060Z,1.10
2023-03-26T18:10:38.996Z,1.02
2023-03-26T18:13:06.572Z,1.00
2023-03-26T18:15:53.470Z,1.00
2023-03-26T18:18:37.324Z,1.10
2023-03-26T18:21:07.452Z,1.63
2023-03-26T18:23:47.807Z,0.95
2023-03-26T18:26:32.198Z,0.82
2023-03-26T18:29:29.725Z,1.05
2023-03-26T18:32:10.422Z,0.70
2023-03-26T18:34:39.942Z,0.80
2023-03-26T18:37:18.036Z,0.80
2023-03-26T18:39:59.495Z,1.00
2023-03-26T18:42:28.302Z,0.80
2023-03-26T18:44:59.638Z,1.15
2023-03-26T18:47:30.489Z,0.80
2023-03-26T18:49:58.639Z,0.90
2023-03-26T18:52:29.617Z,0.93
2023-03-26T18:54:59.323Z,1.02
2023-03-26T18:57:29.218Z,0.93
2023-03-26T19:00:15.706Z,1.05
2023-03-26T19:02:43.288Z,0.95
2023-03-26T19:05:15.688Z,0.98
2023-03-26T19:07:43.204Z,0.90
2023-03-26T19:10:18.698Z,0.90
2023-03-26T19:12:46.474Z,0.90
2023-03-26T19:15:16.974Z,1.10
2023-03-26T19:17:47.435Z,0.88
2023-03-26T19:20:20.107Z,0.95
2023-03-26T19:22:48.279Z,1.00
2023-03-26T19:25:28.837Z,1.23
2023-03-26T19:27:56.110Z,1.40
2023-03-26T19:30:34.751Z,1.20
2023-03-26T19:33:13.879Z,0.95
2023-03-26T19:35:43.377Z,0.90
2023-03-26T19:38:24.267Z,0.75
2023-03-26T19:40:54.662Z,1.20
2023-03-26T19:43:23.689Z,1.65
2023-03-26T19:45:59.952Z,1.10
2023-03-26T19:48:45.315Z,0.88
2023-03-26T19:51:31.573Z,1.00
2023-03-26T19:54:01.200Z,1.10
2023-03-26T19:56:28.693Z,1.05
2023-03-26T19:58:56.574Z,1.10
2023-03-26T20:01:29.278Z,1.13
2023-03-26T20:04:01.739Z,1.20
2023-03-26T20:06:41.636Z,1.00
2023-03-26T20:09:11.227Z,0.93
2023-03-26T20:11:39.816Z,1.20
2023-03-26T20:14:19.898Z,1.33
2023-03-26T20:16:47.294Z,1.40
2023-03-26T20:19:15.339Z,1.20
2023-03-26T20:21:43.117Z,1.10
2023-03-26T20:24:17.589Z,1.05
2023-03-26T20:26:48.070Z,1.23
2023-03-26T20:29:15.848Z,1.10
2023-03-26T20:31:43.496Z,1.10
2023-03-26T20:34:23.563Z,0.93
2023-03-26T20:36:57.123Z,0.80
2023-03-26T20:39:28.765Z,1.10
2023-03-26T20:41:56.478Z,0.82
2023-03-26T20:44:26.827Z,0.90
2023-03-26T20:46:54.267Z,0.85
2023-03-26T20:49:22.170Z,0.80
2023-03-26T20:51:49.484Z,0.82
2023-03-26T20:54:19.265Z,0.88
2023-03-26T20:56:47.749Z,1.45
2023-03-26T20:59:19.210Z,1.20
2023-03-26T21:01:47.497Z,1.35
2023-03-26T21:04:16.131Z,0.98
2023-03-26T21:06:43.720Z,0.98
2023-03-26T21:09:17.720Z,0.85
2023-03-26T21:12:07.078Z,0.88
2023-03-26T21:14:41.791Z,0.80
2023-03-26T21:17:18.017Z,1.00
2023-03-26T21:22:37.167Z,0.82
2023-03-26T21:25:32.175Z,1.00
2023-03-26T21:28:08.010Z,0.98
2023-03-26T21:30:35.487Z,1.17
2023-03-26T21:33:05.206Z,1.20
2023-03-26T21:35:34.559Z,1.30
2023-03-26T21:38:04.167Z,0.98
2023-03-26T21:40:31.700Z,1.17
2023-03-26T21:42:59.128Z,1.00
2023-03-26T21:45:26.731Z,0.80
2023-03-26T21:47:54.172Z,1.02
2023-03-26T21:50:23.568Z,1.00
2023-03-26T21:52:51.920Z,1.00
2023-03-26T21:55:21.963Z,1.10
2023-03-26T21:58:08.547Z,1.10
2023-03-26T22:01:15.196Z,1.08
2023-03-26T22:03:50.774Z,1.10
2023-03-26T22:06:27.021Z,1.08
2023-03-26T22:08:54.319Z,1.10
2023-03-26T22:11:21.224Z,1.23
2023-03-26T22:13:48.109Z,1.00
2023-03-26T22:16:16.802Z,1.00
2023-03-26T22:18:44.129Z,1.00
2023-03-26T22:21:12.810Z,0.80
2023-03-26T22:23:40.042Z,0.90
2023-03-26T22:26:07.309Z,0.95
2023-03-26T22:28:34.283Z,0.80
2023-03-26T22:31:08.522Z,1.25
2023-03-26T22:33:36.276Z,0.70
2023-03-26T22:36:03.366Z,0.98
2023-03-26T22:38:30.758Z,0.98
2023-03-26T22:40:58.554Z,0.98
2023-03-26T22:43:26.188Z,0.93
2023-03-26T22:45:54.720Z,1.13
2023-03-26T22:48:23.553Z,0.95
2023-03-26T22:51:03.683Z,1.00
2023-03-26T22:53:31.634Z,0.90
2023-03-26T22:55:59.587Z,1.33
2023-03-26T22:58:27.323Z,1.00
2023-03-26T23:01:08.333Z,0.90
2023-03-26T23:03:36.859Z,0.90
2023-03-26T23:06:07.553Z,1.25
2023-03-26T23:08:36.256Z,1.10
2023-03-26T23:11:08.396Z,1.20
2023-03-26T23:13:36.104Z,1.00
2023-03-26T23:16:04.618Z,1.05
2023-03-26T23:18:31.903Z,1.10
2023-03-26T23:20:59.018Z,1.35
2023-03-26T23:23:28.772Z,1.20
2023-03-26T23:26:01.271Z,1.50
2023-03-26T23:28:30.260Z,1.05
2023-03-26T23:30:57.370Z,1.33
2023-03-26T23:33:27.678Z,1.40
2023-03-26T23:35:57.868Z,1.20
2023-03-26T23:38:28.092Z,1.30
2023-03-26T23:41:15.350Z,1.33
2023-03-26T23:43:54.145Z,1.10
2023-03-26T23:46:23.588Z,1.15
2023-03-26T23:48:51.272Z,1.15
2023-03-26T23:51:22.502Z,1.45
2023-03-26T23:53:49.660Z,1.40
2023-03-26T23:56:17.421Z,1.40
2023-03-26T23:58:44.763Z,1.60
